createdAt,value
2024-01-05T00:00:15.513Z,90.95
2024-01-05T00:02:42.603Z,92.49
2024-01-05T00:05:10.149Z,93.04
2024-01-05T00:07:37.313Z,93.83
2024-01-05T00:10:04.944Z,94.66
2024-01-05T00:12:32.287Z,93.95
2024-01-05T00:14:59.569Z,94.84
2024-01-05T00:17:26.646Z,95.03
2024-01-05T00:19:54.401Z,94.28
2024-01-05T00:22:24.682Z,94.79
2024-01-05T00:24:53.358Z,95.34
2024-01-05T00:27:20.559Z,95.49
2024-01-05T00:29:49.249Z,95.71
2024-01-05T00:32:18.675Z,97.06
2024-01-05T00:34:46.533Z,98.47
2024-01-05T00:37:13.743Z,99.20
2024-01-05T00:39:41.411Z,96.24
2024-01-05T00:42:08.690Z,92.87
2024-01-05T00:44:35.848Z,89.71
2024-01-05T00:47:03.013Z,90.18
2024-01-05T00:49:29.930Z,90.91
2024-01-05T00:51:56.981Z,90.95
2024-01-05T00:54:23.915Z,91.42
2024-01-05T00:56:52.681Z,92.29
2024-01-05T00:59:21.536Z,91.85
2024-01-05T01:01:48.610Z,93.38
2024-01-05T01:04:16.110Z,92.73
2024-01-05T01:06:43.296Z,91.99
2024-01-05T01:09:10.524Z,92.17
2024-01-05T01:11:37.423Z,92.11
2024-01-05T01:14:04.281Z,91.61
2024-01-05T01:16:32.563Z,89.40
2024-01-05T01:19:00.784Z,90.48
2024-01-05T01:21:27.981Z,89.67
2024-01-05T01:23:54.925Z,89.61
2024-01-05T01:26:21.887Z,89.97
2024-01-05T01:28:48.780Z,89.16
2024-01-05T01:31:15.898Z,90.34
2024-01-05T01:33:44.091Z,89.17
2024-01-05T01:36:11.237Z,86.70
2024-01-05T01:38:40.807Z,86.06
2024-01-05T01:41:07.752Z,86.40
2024-01-05T01:43:34.690Z,86.73
2024-01-05T01:46:02.273Z,86.29
2024-01-05T01:48:31.193Z,87.01
2024-01-05T01:50:59.691Z,86.66
2024-01-05T01:53:28.408Z,86.38
2024-01-05T01:55:56.194Z,87.31
2024-01-05T01:58:24.101Z,87.07
2024-01-05T02:00:52.059Z,87.72
2024-01-05T02:03:19.347Z,88.67
2024-01-05T02:05:48.987Z,89.17
2024-01-05T02:08:16.658Z,89.78
2024-01-05T02:10:43.818Z,89.27
2024-01-05T02:13:11.197Z,86.94
2024-01-05T02:15:38.157Z,85.35
2024-01-05T02:18:15.958Z,86.30
2024-01-05T02:20:48.249Z,86.02
2024-01-05T02:23:24.067Z,85.62
2024-01-05T02:25:51.300Z,87.15
2024-01-05T02:28:20.041Z,85.63
2024-01-05T02:30:47.477Z,86.36
2024-01-05T02:33:14.667Z,86.59
2024-01-05T02:35:42.181Z,85.82
2024-01-05T02:38:09.081Z,83.69
2024-01-05T02:40:36.063Z,83.55
2024-01-05T02:43:02.996Z,84.83
2024-01-05T02:45:31.198Z,84.61
2024-01-05T02:47:58.231Z,84.13
2024-01-05T02:50:25.306Z,85.20
2024-01-05T02:52:52.182Z,84.63
2024-01-05T02:55:19.053Z,82.56
2024-01-05T02:57:48.870Z,83.50
2024-01-05T03:00:16.235Z,84.25
2024-01-05T03:02:43.130Z,84.67
2024-01-05T03:05:10.197Z,84.31
2024-01-05T03:07:37.097Z,82.38
2024-01-05T03:10:04.270Z,83.79
2024-01-05T03:12:31.270Z,84.64
2024-01-05T03:15:00.655Z,83.44
2024-01-05T03:17:27.670Z,83.07
2024-01-05T03:19:54.681Z,83.36
2024-01-05T03:22:21.723Z,84.94
2024-01-05T03:24:48.657Z,85.02
2024-01-05T03:27:16.281Z,82.49
2024-01-05T03:29:43.423Z,83.76
2024-01-05T03:32:10.479Z,85.61
2024-01-05T03:34:38.939Z,85.74
2024-01-05T03:37:06.057Z,88.03
2024-01-05T03:39:33.219Z,88.88
2024-01-05T03:42:00.336Z,90.95
2024-01-05T03:44:27.590Z,92.38
2024-01-05T03:46:54.658Z,93.66
2024-01-05T03:49:21.800Z,94.88
2024-01-05T03:51:48.926Z,95.53
2024-01-05T03:54:16.083Z,96.17
2024-01-05T03:56:44.361Z,96.38
2024-01-05T03:59:11.613Z,96.70
2024-01-05T04:01:51.171Z,97.45
2024-01-05T04:04:18.836Z,98.05
2024-01-05T04:06:47.094Z,98.52
2024-01-05T04:09:14.739Z,98.64
2024-01-05T04:11:41.829Z,98.21
2024-01-05T04:14:09.758Z,97.57
2024-01-05T04:16:36.967Z,97.86
2024-01-05T04:19:04.228Z,97.80
2024-01-05T04:21:32.259Z,97.81
2024-01-05T04:23:59.882Z,97.88
2024-01-05T04:26:27.576Z,99.17
2024-01-05T04:28:54.989Z,99.54
2024-01-05T04:31:22.435Z,99.73
2024-01-05T04:33:50.166Z,99.51
2024-01-05T04:36:19.152Z,98.69
2024-01-05T04:38:46.330Z,97.97
2024-01-05T04:41:15.046Z,98.81
2024-01-05T04:43:43.348Z,98.41
2024-01-05T04:46:10.855Z,98.38
2024-01-05T04:48:38.047Z,98.23
2024-01-05T04:51:05.302Z,99.20
2024-01-05T04:53:32.311Z,97.77
2024-01-05T04:55:59.185Z,94.10
2024-01-05T04:58:26.374Z,92.65
2024-01-05T05:00:55.210Z,92.04
2024-01-05T05:03:22.566Z,91.49
2024-01-05T05:05:49.724Z,89.66
2024-01-05T05:08:16.732Z,87.89
2024-01-05T05:10:44.088Z,87.50
2024-01-05T05:13:11.210Z,85.66
2024-01-05T05:15:39.639Z,85.75
2024-01-05T05:18:07.824Z,85.64
2024-01-05T05:20:35.143Z,85.00
2024-01-05T05:23:02.097Z,85.70
2024-01-05T05:25:29.037Z,85.77
2024-01-05T05:27:55.949Z,85.74
2024-01-05T05:30:23.294Z,87.18
2024-01-05T05:32:50.611Z,85.88
2024-01-05T05:35:17.523Z,88.62
2024-01-05T05:37:44.422Z,89.86
2024-01-05T05:40:13.539Z,91.05
2024-01-05T05:42:40.860Z,91.85
2024-01-05T05:45:08.454Z,92.53
2024-01-05T05:47:35.711Z,93.67
2024-01-05T05:50:07.244Z,94.12
2024-01-05T05:52:36.304Z,92.88
2024-01-05T05:55:03.460Z,91.54
2024-01-05T05:57:30.875Z,91.04
2024-01-05T05:59:58.006Z,88.91
2024-01-05T06:02:24.968Z,88.43
2024-01-05T06:04:52.156Z,88.36
2024-01-05T06:07:19.075Z,89.06
2024-01-05T06:09:45.966Z,89.38
2024-01-05T06:12:12.951Z,89.82
2024-01-05T06:14:39.844Z,90.58
2024-01-05T06:17:06.772Z,90.58
2024-01-05T06:19:33.927Z,90.58
2024-01-05T06:22:01.516Z,90.45
2024-01-05T06:24:30.329Z,90.96
2024-01-05T06:26:57.899Z,90.84
2024-01-05T06:29:24.998Z,91.20
2024-01-05T06:31:51.997Z,91.21
2024-01-05T06:34:20.071Z,91.68
2024-01-05T06:36:47.301Z,89.71
2024-01-05T06:39:14.176Z,88.26
2024-01-05T06:41:41.642Z,87.45
2024-01-05T06:44:08.926Z,88.21
2024-01-05T06:46:35.812Z,88.63
2024-01-05T06:49:03.144Z,89.16
2024-01-05T06:51:31.788Z,89.73
2024-01-05T06:53:59.357Z,89.50
2024-01-05T06:56:29.413Z,89.35
2024-01-05T06:58:57.066Z,88.57
2024-01-05T07:01:24.540Z,88.76
2024-01-05T07:03:52.064Z,89.19
2024-01-05T07:06:19.218Z,89.27
2024-01-05T07:08:46.161Z,89.09
2024-01-05T07:11:23.151Z,87.50
2024-01-05T07:13:51.202Z,86.79
2024-01-05T07:16:22.649Z,86.50
2024-01-05T07:18:50.502Z,86.59
2024-01-05T07:21:18.536Z,86.07
2024-01-05T07:23:45.655Z,86.72
2024-01-05T07:26:14.131Z,87.11
2024-01-05T07:28:41.526Z,85.96
2024-01-05T07:31:11.282Z,85.93
2024-01-05T07:33:41.205Z,85.51
2024-01-05T07:36:08.692Z,86.24
2024-01-05T07:38:36.505Z,86.35
2024-01-05T07:41:04.565Z,86.53
2024-01-05T07:43:32.077Z,86.30
2024-01-05T07:45:59.334Z,85.63
2024-01-05T07:48:26.605Z,83.68
2024-01-05T07:50:55.464Z,82.99
2024-01-05T07:53:23.098Z,81.76
2024-01-05T07:55:50.002Z,80.55
2024-01-05T07:58:17.447Z,79.04
2024-01-05T08:00:44.519Z,77.83
2024-01-05T08:03:12.650Z,76.96
2024-01-05T08:05:44.995Z,76.36
2024-01-05T08:08:16.647Z,72.99
2024-01-05T08:10:43.580Z,74.18
2024-01-05T08:13:10.849Z,71.41
2024-01-05T08:15:38.270Z,72.75
2024-01-05T08:18:06.174Z,72.54
2024-01-05T08:20:40.665Z,71.66
2024-01-05T08:23:10.546Z,69.89
2024-01-05T08:25:37.600Z,67.02
2024-01-05T08:28:05.196Z,65.06
2024-01-05T08:30:32.872Z,63.94
2024-01-05T08:33:00.484Z,63.16
2024-01-05T08:35:27.942Z,63.04
2024-01-05T08:37:55.509Z,64.44
2024-01-05T08:40:27.842Z,63.22
2024-01-05T08:42:59.197Z,63.16
2024-01-05T08:45:28.793Z,63.56
2024-01-05T08:47:56.278Z,63.43
2024-01-05T08:50:23.796Z,63.17
2024-01-05T08:52:52.207Z,62.15
2024-01-05T08:55:19.682Z,61.99
2024-01-05T08:57:48.980Z,62.41
2024-01-05T09:00:16.693Z,62.79
2024-01-05T09:02:44.424Z,61.87
2024-01-05T09:05:11.962Z,60.17
2024-01-05T09:07:40.583Z,57.86
2024-01-05T09:10:11.312Z,56.96
2024-01-05T09:12:39.768Z,55.25
2024-01-05T09:15:08.839Z,53.70
2024-01-05T09:17:36.354Z,52.99
2024-01-05T09:20:08.204Z,53.43
2024-01-05T09:22:36.128Z,53.35
2024-01-05T09:25:07.452Z,54.06
2024-01-05T09:27:34.829Z,54.60
2024-01-05T09:30:02.340Z,54.71
2024-01-05T09:32:31.969Z,56.66
2024-01-05T09:34:59.491Z,59.06
2024-01-05T09:37:26.899Z,58.83
2024-01-05T09:39:54.283Z,56.07
2024-01-05T09:42:21.772Z,57.05
2024-01-05T09:44:49.684Z,55.56
2024-01-05T09:47:18.867Z,55.96
2024-01-05T09:49:50.509Z,57.01
2024-01-05T09:52:21.486Z,57.59
2024-01-05T09:54:48.916Z,56.54
2024-01-05T09:57:21.545Z,56.14
2024-01-05T09:59:49.295Z,54.85
2024-01-05T10:02:27.701Z,53.97
2024-01-05T10:04:56.198Z,56.69
2024-01-05T10:07:23.198Z,53.23
2024-01-05T10:09:54.894Z,55.36
2024-01-05T10:12:22.298Z,55.79
2024-01-05T10:14:50.718Z,55.46
2024-01-05T10:17:18.531Z,56.01
2024-01-05T10:19:46.088Z,54.89
2024-01-05T10:22:15.780Z,53.28
2024-01-05T10:24:44.056Z,54.63
2024-01-05T10:27:15.288Z,53.75
2024-01-05T10:29:47.717Z,53.55
2024-01-05T10:32:20.181Z,51.38
2024-01-05T10:34:49.110Z,49.30
2024-01-05T10:37:17.828Z,51.86
2024-01-05T10:39:56.539Z,51.67
2024-01-05T10:42:29.211Z,50.27
2024-01-05T10:45:00.372Z,47.37
2024-01-05T10:47:32.431Z,48.36
2024-01-05T10:50:00.070Z,47.20
2024-01-05T10:52:29.863Z,47.45
2024-01-05T10:54:57.494Z,48.81
2024-01-05T10:57:28.053Z,50.44
2024-01-05T10:59:56.003Z,51.74
2024-01-05T11:02:40.713Z,53.82
2024-01-05T11:05:09.592Z,51.41
2024-01-05T11:07:38.680Z,51.55
2024-01-05T11:10:33.414Z,49.08
2024-01-05T11:13:33.965Z,47.22
2024-01-05T11:16:25.540Z,47.43
2024-01-05T11:19:20.746Z,45.57
2024-01-05T11:22:01.274Z,43.98
2024-01-05T11:24:29.315Z,42.14
2024-01-05T11:26:59.117Z,43.17
2024-01-05T11:29:47.634Z,44.54
2024-01-05T11:32:47.734Z,46.22
2024-01-05T11:35:19.042Z,44.68
2024-01-05T11:37:46.992Z,46.29
2024-01-05T11:40:26.485Z,47.01
2024-01-05T11:42:53.956Z,47.87
2024-01-05T11:45:45.608Z,48.08
2024-01-05T11:48:49.064Z,49.32
2024-01-05T11:51:16.881Z,48.31
2024-01-05T11:53:45.943Z,45.63
2024-01-05T11:56:17.409Z,45.80
2024-01-05T11:58:45.542Z,44.96
2024-01-05T12:01:15.061Z,44.26
2024-01-05T12:03:44.911Z,41.88
2024-01-05T12:06:14.416Z,40.05
2024-01-05T12:08:42.477Z,40.28
2024-01-05T12:11:12.248Z,40.08
2024-01-05T12:13:40.260Z,39.57
2024-01-05T12:16:12.063Z,40.38
2024-01-05T12:18:49.883Z,41.51
2024-01-05T12:21:21.066Z,41.83
2024-01-05T12:23:57.492Z,42.33
2024-01-05T12:26:25.246Z,43.36
2024-01-05T12:28:53.110Z,44.87
2024-01-05T12:31:22.016Z,45.76
2024-01-05T12:33:49.596Z,46.67
2024-01-05T12:36:33.176Z,47.26
2024-01-05T12:39:17.319Z,46.88
2024-01-05T12:41:47.532Z,47.22
2024-01-05T12:44:17.615Z,46.47
2024-01-05T12:46:48.178Z,45.90
2024-01-05T12:49:26.419Z,46.11
2024-01-05T12:51:54.459Z,44.92
2024-01-05T12:54:22.749Z,43.87
2024-01-05T12:56:52.477Z,43.80
2024-01-05T12:59:24.166Z,43.29
2024-01-05T13:02:01.808Z,42.31
2024-01-05T13:04:39.653Z,41.09
2024-01-05T13:07:12.355Z,40.41
2024-01-05T13:09:45.160Z,39.46
2024-01-05T13:12:12.383Z,38.35
2024-01-05T13:14:42.661Z,39.12
2024-01-05T13:17:09.758Z,38.69
2024-01-05T13:19:38.235Z,39.58
2024-01-05T13:22:10.502Z,41.08
2024-01-05T13:24:37.718Z,43.51
2024-01-05T13:27:06.686Z,44.71
2024-01-05T13:29:33.837Z,45.46
2024-01-05T13:32:00.784Z,46.25
2024-01-05T13:34:30.869Z,46.65
2024-01-05T13:37:01.634Z,47.05
2024-01-05T13:39:28.691Z,47.97
2024-01-05T13:41:56.021Z,48.70
2024-01-05T13:44:25.253Z,49.60
2024-01-05T13:46:52.267Z,49.83
2024-01-05T13:49:24.803Z,50.05
2024-01-05T13:51:52.750Z,51.14
2024-01-05T13:54:23.164Z,51.14
2024-01-05T13:56:50.316Z,51.85
2024-01-05T13:59:17.227Z,52.66
2024-01-05T14:01:44.629Z,53.08
2024-01-05T14:04:12.729Z,53.77
2024-01-05T14:06:40.164Z,54.77
2024-01-05T14:09:07.241Z,55.41
2024-01-05T14:11:34.220Z,56.28
2024-01-05T14:14:01.321Z,56.86
2024-01-05T14:16:28.306Z,57.78
2024-01-05T14:18:55.765Z,58.77
2024-01-05T14:21:29.724Z,59.49
2024-01-05T14:23:57.642Z,60.60
2024-01-05T14:26:27.341Z,61.66
2024-01-05T14:28:56.437Z,61.58
2024-01-05T14:31:34.939Z,60.87
2024-01-05T14:34:04.830Z,60.90
2024-01-05T14:36:31.832Z,61.57
2024-01-05T14:38:59.990Z,62.18
2024-01-05T14:41:29.589Z,62.70
2024-01-05T14:43:57.454Z,63.97
2024-01-05T14:46:25.928Z,64.68
2024-01-05T14:48:54.491Z,65.08
2024-01-05T14:51:30.513Z,65.21
2024-01-05T14:54:01.111Z,66.21
2024-01-05T14:56:31.162Z,66.73
2024-01-05T14:59:02.844Z,67.40
2024-01-05T15:01:31.612Z,67.01
2024-01-05T15:03:59.258Z,67.27
2024-01-05T15:06:38.156Z,67.97
2024-01-05T15:09:08.983Z,68.57
2024-01-05T15:11:37.183Z,69.06
2024-01-05T15:14:11.948Z,69.26
2024-01-05T15:16:58.116Z,69.75
2024-01-05T15:19:29.973Z,70.47
2024-01-05T15:22:00.693Z,70.22
2024-01-05T15:24:31.877Z,70.43
2024-01-05T15:27:04.372Z,70.90
2024-01-05T15:29:42.399Z,71.23
2024-01-05T15:32:17.750Z,70.24
2024-01-05T15:34:45.208Z,69.61
2024-01-05T15:37:17.312Z,69.63
2024-01-05T15:39:44.950Z,69.43
2024-01-05T15:42:16.353Z,69.69
2024-01-05T15:44:45.931Z,70.02
2024-01-05T15:47:13.412Z,69.89
2024-01-05T15:49:42.170Z,70.19
2024-01-05T15:52:09.738Z,70.28
2024-01-05T15:54:37.008Z,70.76
2024-01-05T15:57:05.201Z,71.81
2024-01-05T15:59:36.488Z,71.52
2024-01-05T16:02:04.700Z,71.59
2024-01-05T16:04:33.801Z,71.64
2024-01-05T16:07:05.290Z,72.56
2024-01-05T16:09:32.483Z,72.97
2024-01-05T16:12:00.700Z,73.50
2024-01-05T16:14:34.994Z,74.17
2024-01-05T16:17:03.306Z,74.02
2024-01-05T16:19:31.593Z,73.80
2024-01-05T16:22:01.640Z,73.69
2024-01-05T16:24:29.094Z,73.64
2024-01-05T16:26:56.857Z,73.80
2024-01-05T16:29:25.228Z,74.33
2024-01-05T16:31:53.267Z,74.19
2024-01-05T16:34:21.714Z,74.94
2024-01-05T16:36:49.124Z,75.85
2024-01-05T16:39:18.811Z,73.79
2024-01-05T16:41:46.766Z,76.21
2024-01-05T16:44:13.731Z,76.88
2024-01-05T16:46:41.207Z,78.96
2024-01-05T16:49:09.147Z,79.46
2024-01-05T16:51:36.343Z,80.00
2024-01-05T16:54:04.553Z,80.39
2024-01-05T16:56:41.055Z,81.04
2024-01-05T16:59:12.364Z,82.26
2024-01-05T17:01:47.151Z,82.73
2024-01-05T17:04:14.455Z,82.86
2024-01-05T17:06:43.713Z,82.86
2024-01-05T17:09:10.944Z,83.66
2024-01-05T17:11:37.951Z,83.33
2024-01-05T17:14:04.997Z,83.45
2024-01-05T17:16:32.299Z,83.51
2024-01-05T17:19:00.736Z,83.72
2024-01-05T17:21:33.132Z,83.60
2024-01-05T17:24:01.440Z,84.39
2024-01-05T17:26:31.598Z,85.19
2024-01-05T17:29:05.234Z,85.68
2024-01-05T17:31:33.026Z,85.26
2024-01-05T17:34:00.483Z,85.02
2024-01-05T17:36:32.106Z,84.74
2024-01-05T17:38:59.426Z,83.19
2024-01-05T17:41:28.588Z,81.37
2024-01-05T17:43:55.602Z,79.99
2024-01-05T17:46:22.517Z,82.29
2024-01-05T17:48:50.025Z,83.75
2024-01-05T17:51:17.273Z,84.35
2024-01-05T17:53:49.488Z,84.57
2024-01-05T17:56:27.779Z,84.99
2024-01-05T17:58:57.463Z,85.69
2024-01-05T18:01:27.025Z,85.24
2024-01-05T18:03:56.459Z,85.34
2024-01-05T18:06:23.877Z,85.80
2024-01-05T18:08:53.127Z,86.13
2024-01-05T18:11:23.731Z,86.51
2024-01-05T18:13:52.347Z,87.50
2024-01-05T18:16:32.582Z,87.87
2024-01-05T18:18:59.755Z,87.47
2024-01-05T18:21:29.904Z,86.86
2024-01-05T18:24:18.988Z,85.63
2024-01-05T18:26:49.124Z,84.67
2024-01-05T18:29:24.452Z,85.37
2024-01-05T18:31:55.461Z,85.31
2024-01-05T18:34:24.222Z,84.74
2024-01-05T18:36:51.649Z,85.63
2024-01-05T18:39:19.095Z,86.22
2024-01-05T18:41:48.462Z,86.86
2024-01-05T18:44:19.692Z,87.20
2024-01-05T18:46:51.565Z,86.73
2024-01-05T18:49:20.298Z,85.01
2024-01-05T18:51:48.663Z,83.91
2024-01-05T18:54:20.979Z,84.32
2024-01-05T18:56:49.654Z,84.49
2024-01-05T18:59:19.229Z,84.77
2024-01-05T19:02:02.053Z,85.18
2024-01-05T19:04:31.933Z,85.18
2024-01-05T19:07:02.528Z,85.95
2024-01-05T19:09:30.107Z,85.17
2024-01-05T19:12:02.375Z,84.72
2024-01-05T19:14:30.137Z,84.94
2024-01-05T19:16:59.387Z,84.12
2024-01-05T19:19:34.415Z,84.10
2024-01-05T19:22:02.831Z,84.75
2024-01-05T19:24:33.459Z,85.40
2024-01-05T19:27:03.449Z,85.53
2024-01-05T19:29:33.600Z,85.60
2024-01-05T19:32:01.978Z,84.70
2024-01-05T19:34:31.102Z,83.62
2024-01-05T19:36:59.510Z,83.54
2024-01-05T19:39:34.846Z,84.03
2024-01-05T19:42:02.542Z,84.94
2024-01-05T19:44:30.099Z,85.02
2024-01-05T19:46:58.720Z,85.66
2024-01-05T19:49:31.700Z,86.72
2024-01-05T19:52:01.725Z,86.43
2024-01-05T19:54:34.581Z,85.83
2024-01-05T19:57:04.205Z,86.12
2024-01-05T19:59:33.678Z,86.62
2024-01-05T20:02:09.011Z,86.40
2024-01-05T20:04:40.274Z,85.70
2024-01-05T20:07:12.380Z,85.95
2024-01-05T20:09:47.104Z,86.31
2024-01-05T20:12:18.666Z,86.70
2024-01-05T20:14:49.315Z,86.09
2024-01-05T20:17:18.288Z,85.73
2024-01-05T20:19:47.266Z,86.22
2024-01-05T20:22:18.185Z,86.42
2024-01-05T20:24:49.650Z,86.58
2024-01-05T20:27:19.156Z,87.29
2024-01-05T20:29:49.486Z,87.94
2024-01-05T20:32:22.290Z,88.45
2024-01-05T20:35:02.088Z,86.95
2024-01-05T20:37:31.669Z,87.31
2024-01-05T20:40:00.014Z,88.29
2024-01-05T20:42:28.538Z,88.27
2024-01-05T20:45:01.734Z,87.96
2024-01-05T20:47:39.794Z,88.69
2024-01-05T20:50:19.643Z,89.85
2024-01-05T20:52:48.986Z,90.38
2024-01-05T20:55:16.377Z,90.49
2024-01-05T20:57:46.130Z,90.48
2024-01-05T21:00:33.304Z,91.05
2024-01-05T21:03:00.813Z,91.35
2024-01-05T21:05:27.844Z,91.31
2024-01-05T21:07:55.043Z,90.73
2024-01-05T21:10:23.457Z,90.22
2024-01-05T21:12:53.425Z,90.65
2024-01-05T21:15:20.466Z,89.70
2024-01-05T21:17:47.686Z,90.63
2024-01-05T21:20:15.537Z,89.55
2024-01-05T21:22:43.153Z,88.58
2024-01-05T21:25:13.924Z,87.83
2024-01-05T21:27:43.187Z,87.87
2024-01-05T21:30:10.875Z,88.46
2024-01-05T21:32:39.590Z,88.18
2024-01-05T21:35:07.331Z,89.19
2024-01-05T21:37:37.652Z,89.52
2024-01-05T21:40:07.229Z,89.31
2024-01-05T21:42:35.050Z,87.13
2024-01-05T21:45:02.988Z,84.62
2024-01-05T21:47:51.973Z,86.08
2024-01-05T21:50:19.942Z,87.56
2024-01-05T21:52:47.834Z,88.57
2024-01-05T21:55:17.579Z,89.40
2024-01-05T21:57:46.176Z,90.03
2024-01-05T22:00:14.177Z,90.34
2024-01-05T22:02:41.506Z,90.49
2024-01-05T22:05:08.983Z,91.10
2024-01-05T22:07:36.755Z,91.12
2024-01-05T22:10:05.608Z,91.40
2024-01-05T22:12:32.800Z,90.92
2024-01-05T22:15:00.034Z,92.01
2024-01-05T22:17:27.189Z,92.01
2024-01-05T22:19:55.209Z,91.33
2024-01-05T22:22:23.616Z,91.61
2024-01-05T22:24:50.880Z,91.99
2024-01-05T22:27:19.253Z,92.72
2024-01-05T22:29:46.911Z,92.16
2024-01-05T22:32:14.309Z,90.77
2024-01-05T22:34:44.162Z,90.93
2024-01-05T22:37:11.929Z,92.58
2024-01-05T22:39:39.355Z,90.93
2024-01-05T22:42:06.605Z,91.70
2024-01-05T22:44:34.511Z,91.78
2024-01-05T22:47:06.057Z,91.62
2024-01-05T22:49:33.626Z,92.00
2024-01-05T22:52:03.255Z,92.33
2024-01-05T22:54:31.205Z,92.43
2024-01-05T22:56:58.443Z,92.07
2024-01-05T22:59:25.524Z,92.93
2024-01-05T23:01:56.499Z,92.63
2024-01-05T23:04:25.666Z,91.80
2024-01-05T23:06:54.329Z,92.12
2024-01-05T23:09:21.856Z,90.74
2024-01-05T23:11:53.877Z,90.00
2024-01-05T23:14:21.786Z,90.96
2024-01-05T23:16:53.145Z,91.02
2024-01-05T23:19:21.385Z,91.10
2024-01-05T23:21:48.651Z,91.87
2024-01-05T23:24:16.116Z,93.10
2024-01-05T23:26:44.831Z,92.53
2024-01-05T23:29:12.400Z,92.14
2024-01-05T23:31:43.305Z,91.62
2024-01-05T23:34:16.356Z,92.08
2024-01-05T23:36:47.374Z,92.18
2024-01-05T23:39:15.074Z,92.36
2024-01-05T23:41:42.664Z,92.48
2024-01-05T23:44:10.160Z,93.29
2024-01-05T23:46:37.392Z,93.88
2024-01-05T23:49:04.590Z,94.94
2024-01-05T23:51:32.431Z,94.64
2024-01-05T23:53:59.699Z,94.20
2024-01-05T23:56:26.948Z,94.12
2024-01-05T23:58:54.872Z,94.17
